Time;durP1;ratioP1;P1;durP2;ratioP2;P2;SDS_P1;SDS_P2;PMS_P1;PMS_P2;Temp;Humidity;BMP_temperature;BMP_pressure;BME280_temperature;BME280_humidity;BME280_pressure;Samples;Min_cycle;Max_cycle;Signal;HPM_P1;HPM_P2
2023/05/10 00:00:46;;;;;;;57.10;43.22;;;14.80;99.90;;;;;;4999110;28;20535;-77
2023/05/10 00:03:13;;;;;;;69.28;47.55;;;14.80;99.90;;;;;;4999418;28;20048;-77
2023/05/10 00:05:40;;;;;;;70.78;46.85;;;14.80;99.90;;;;;;4991359;28;20050;-77
2023/05/10 00:08:07;;;;;;;71.30;48.00;;;14.70;99.90;;;;;;4997241;28;20053;-77
2023/05/10 00:10:33;;;;;;;66.45;48.53;;;14.70;99.90;;;;;;4984329;28;20059;-77
2023/05/10 00:13:00;;;;;;;69.90;47.38;;;14.60;99.90;;;;;;4997790;28;20586;-78
2023/05/10 00:15:27;;;;;;;64.97;45.80;;;14.60;99.90;;;;;;4996173;28;20042;-79
2023/05/10 00:17:53;;;;;;;70.80;49.30;;;14.70;99.90;;;;;;4987941;28;20048;-79
2023/05/10 00:20:20;;;;;;;80.15;50.28;;;14.70;99.90;;;;;;5003536;28;20045;-79
2023/05/10 00:22:47;;;;;;;72.53;50.75;;;14.70;99.90;;;;;;5016731;28;20045;-78
2023/05/10 00:25:14;;;;;;;72.55;51.08;;;14.70;99.90;;;;;;5016677;28;20040;-79
2023/05/10 00:27:40;;;;;;;69.25;49.90;;;14.80;99.90;;;;;;4989210;28;20038;-78
2023/05/10 00:30:08;;;;;;;55.75;41.92;;;14.80;99.90;;;;;;5004066;28;20594;-79
2023/05/10 00:32:34;;;;;;;47.53;35.47;;;14.50;99.90;;;;;;4999792;28;20046;-78
2023/05/10 00:35:01;;;;;;;40.42;30.08;;;14.40;99.90;;;;;;5000097;28;20140;-78
2023/05/10 00:37:28;;;;;;;34.95;29.35;;;14.30;99.90;;;;;;4997044;28;20107;-78
2023/05/10 00:39:54;;;;;;;35.03;29.13;;;14.30;99.90;;;;;;5024920;28;20033;-78
2023/05/10 00:42:22;;;;;;;34.00;25.83;;;14.20;99.90;;;;;;5018461;28;20137;-78
2023/05/10 00:44:51;;;;;;;29.83;24.15;;;14.10;99.90;;;;;;5002245;28;20092;-77
2023/05/10 00:47:17;;;;;;;32.10;26.17;;;14.10;99.90;;;;;;5002175;28;20046;-78
2023/05/10 00:49:45;;;;;;;28.70;23.30;;;14.00;99.90;;;;;;5000986;28;20061;-78
2023/05/10 00:52:12;;;;;;;27.80;22.80;;;14.00;99.90;;;;;;4989746;28;20612;-78
2023/05/10 00:54:39;;;;;;;27.63;22.45;;;13.90;99.90;;;;;;5017562;28;20051;-78
2023/05/10 00:57:06;;;;;;;28.95;23.70;;;13.90;99.90;;;;;;5016511;28;20406;-78
2023/05/10 00:59:33;;;;;;;26.73;20.77;;;13.90;99.90;;;;;;4999518;28;20034;-78
2023/05/10 01:02:00;;;;;;;23.90;20.88;;;13.90;99.90;;;;;;5010500;28;20579;-78
2023/05/10 01:04:28;;;;;;;25.45;21.58;;;14.00;99.90;;;;;;5001628;28;20056;-78
2023/05/10 01:06:57;;;;;;;24.45;21.48;;;13.90;99.90;;;;;;4999249;28;20165;-78
2023/05/10 01:09:26;;;;;;;27.23;23.77;;;14.00;99.90;;;;;;4985673;28;20051;-78
2023/05/10 01:11:54;;;;;;;28.30;22.98;;;13.90;99.90;;;;;;4986184;28;20045;-78
2023/05/10 01:14:21;;;;;;;29.65;25.27;;;13.90;99.90;;;;;;5015222;28;20041;-78
2023/05/10 01:16:49;;;;;;;30.02;25.52;;;13.90;99.90;;;;;;5002355;28;20045;-78
2023/05/10 01:19:18;;;;;;;30.45;24.08;;;13.90;99.90;;;;;;5002723;28;20048;-78
2023/05/10 01:22:04;;;;;;;30.50;25.98;;;13.90;99.90;;;;;;5004968;28;20041;-78
2023/05/10 01:24:45;;;;;;;;;;;13.90;99.90;;;;;;4999700;28;20107;-79
2023/05/10 01:27:37;;;;;;;32.15;26.98;;;13.80;99.90;;;;;;5016883;28;20008;-79
2023/05/10 01:30:22;;;;;;;30.77;26.40;;;13.80;99.90;;;;;;5019454;28;20041;-79
2023/05/10 01:33:09;;;;;;;;;;;13.80;99.90;;;;;;4983605;28;20054;-79
2023/05/10 01:35:48;;;;;;;32.80;26.25;;;13.80;99.90;;;;;;4984686;28;20422;-79
2023/05/10 01:38:26;;;;;;;37.40;27.67;;;13.80;99.90;;;;;;5002289;28;20517;-79
2023/05/10 01:41:07;;;;;;;38.60;29.98;;;13.70;99.90;;;;;;5001933;28;20041;-78
2023/05/10 01:43:48;;;;;;;41.13;29.65;;;13.80;99.90;;;;;;5001925;28;20042;-79
2023/05/10 01:46:20;;;;;;;43.67;31.42;;;13.70;99.90;;;;;;4986981;28;20136;-79
2023/05/10 01:48:54;;;;;;;41.92;33.65;;;13.70;99.90;;;;;;5003864;28;20050;-78
2023/05/10 01:51:27;;;;;;;43.30;32.60;;;13.80;99.90;;;;;;4998663;28;20046;-79
2023/05/10 01:54:04;;;;;;;57.33;31.98;;;13.80;99.90;;;;;;5001890;28;20680;-80
2023/05/10 01:56:34;;;;;;;40.63;29.02;;;13.80;99.90;;;;;;5011623;28;20104;-78
2023/05/10 01:59:06;;;;;;;39.95;29.33;;;13.70;99.90;;;;;;4985309;28;20132;-78
2023/05/10 02:01:34;;;;;;;36.53;27.35;;;13.60;99.90;;;;;;4997776;28;20076;-78
2023/05/10 02:04:02;;;;;;;37.03;28.83;;;13.60;99.90;;;;;;4985991;28;20052;-78
2023/05/10 02:06:32;;;;;;;33.20;27.08;;;13.60;99.90;;;;;;5018057;28;20080;-77
2023/05/10 02:09:01;;;;;;;34.83;25.52;;;13.50;99.90;;;;;;5002719;28;20144;-78
2023/05/10 02:11:30;;;;;;;36.03;27.75;;;13.50;99.90;;;;;;5015229;28;20049;-79
2023/05/10 02:13:58;;;;;;;35.80;24.90;;;13.50;99.90;;;;;;5026469;28;20042;-80
2023/05/10 02:16:30;;;;;;;35.88;26.20;;;13.50;99.90;;;;;;4997098;28;20045;-78
2023/05/10 02:19:01;;;;;;;36.13;27.48;;;13.50;99.90;;;;;;4985564;28;20053;-78
2023/05/10 02:21:29;;;;;;;22.10;19.05;;;13.50;99.90;;;;;;4986297;28;20115;-80
2023/05/10 02:23:57;;;;;;;23.10;20.55;;;13.30;99.90;;;;;;5013800;28;20046;-78
2023/05/10 02:26:25;;;;;;;28.35;22.38;;;13.10;99.90;;;;;;4999377;28;20099;-78
2023/05/10 02:28:54;;;;;;;22.27;19.63;;;13.00;99.90;;;;;;4986678;28;20538;-78
2023/05/10 02:31:22;;;;;;;23.85;20.70;;;12.70;99.90;;;;;;5003537;28;20072;-78
2023/05/10 02:33:49;;;;;;;30.80;22.90;;;12.60;99.90;;;;;;4989402;28;20538;-78
2023/05/10 02:36:19;;;;;;;32.92;23.42;;;12.50;99.90;;;;;;5003068;28;20045;-79
2023/05/10 02:38:47;;;;;;;36.00;27.38;;;12.50;99.90;;;;;;5018098;28;20045;-79
2023/05/10 02:41:14;;;;;;;39.75;28.80;;;12.30;99.90;;;;;;5002636;28;20048;-78
2023/05/10 02:43:42;;;;;;;39.67;27.25;;;12.30;99.90;;;;;;5016430;28;20053;-78
2023/05/10 02:46:09;;;;;;;38.05;26.88;;;12.30;99.90;;;;;;4989844;28;20045;-79
2023/05/10 02:48:36;;;;;;;40.67;28.75;;;12.30;99.90;;;;;;5001921;28;20119;-78
2023/05/10 02:51:06;;;;;;;48.13;30.05;;;12.20;99.90;;;;;;4993848;28;20508;-78
2023/05/10 02:53:36;;;;;;;50.20;31.73;;;12.20;99.90;;;;;;4995038;28;20114;-78
2023/05/10 02:56:13;;;;;;;53.20;31.52;;;12.30;99.90;;;;;;4989425;28;20081;-78
2023/05/10 02:58:40;;;;;;;50.08;31.98;;;12.30;99.90;;;;;;4997336;28;20628;-78
2023/05/10 03:01:07;;;;;;;63.25;33.65;;;12.40;99.90;;;;;;5003181;28;20043;-78
2023/05/10 03:03:34;;;;;;;50.38;32.20;;;12.30;99.90;;;;;;4999576;28;20046;-78
2023/05/10 03:06:01;;;;;;;57.63;35.13;;;12.30;99.90;;;;;;5000391;28;20041;-78
2023/05/10 03:08:29;;;;;;;59.75;35.20;;;12.40;99.90;;;;;;4999465;28;20041;-78
2023/05/10 03:11:16;;;;;;;63.35;36.53;;;12.40;99.90;;;;;;5001982;28;20041;-79
2023/05/10 03:14:17;;;;;;;61.40;35.55;;;12.40;99.90;;;;;;4984690;28;20073;-78
2023/05/10 03:16:52;;;;;;;57.65;33.85;;;12.40;99.90;;;;;;5000909;28;20088;-78
2023/05/10 03:19:36;;;;;;;56.88;33.58;;;12.30;99.90;;;;;;5003463;28;20095;-78
2023/05/10 03:22:09;;;;;;;57.65;32.40;;;12.30;99.90;;;;;;4998949;28;20052;-78
2023/05/10 03:24:41;;;;;;;52.05;32.38;;;12.30;99.90;;;;;;5000283;28;20041;-78
2023/05/10 03:27:08;;;;;;;56.45;33.50;;;12.30;99.90;;;;;;4998973;28;20037;-78
2023/05/10 03:29:36;;;;;;;54.45;32.78;;;12.30;99.90;;;;;;5023947;28;20087;-78
2023/05/10 03:32:04;;;;;;;52.78;33.25;;;12.30;99.90;;;;;;4999634;28;20502;-78
2023/05/10 03:34:31;;;;;;;50.85;32.13;;;12.40;99.90;;;;;;4985983;28;20045;-78
2023/05/10 03:36:58;;;;;;;56.08;33.00;;;12.40;99.90;;;;;;4971080;28;20415;-78
2023/05/10 03:39:27;;;;;;;51.65;32.03;;;12.40;99.90;;;;;;4982362;28;20042;-78
2023/05/10 03:41:57;;;;;;;56.25;34.38;;;12.40;99.90;;;;;;4966709;28;20096;-78
2023/05/10 03:44:24;;;;;;;61.38;35.53;;;12.40;99.90;;;;;;4966823;28;20158;-78
2023/05/10 03:46:50;;;;;;;54.80;33.80;;;12.40;99.90;;;;;;4980882;28;20047;-78
2023/05/10 03:49:17;;;;;;;57.85;34.25;;;12.40;99.90;;;;;;4971412;28;20050;-79
2023/05/10 03:51:44;;;;;;;55.92;34.65;;;12.30;99.90;;;;;;4980628;28;20058;-78
2023/05/10 03:54:11;;;;;;;50.97;33.75;;;12.30;99.90;;;;;;4971601;28;20805;-79
2023/05/10 03:56:37;;;;;;;53.80;32.83;;;12.30;99.90;;;;;;4968762;28;20042;-79
2023/05/10 03:59:08;;;;;;;65.28;38.10;;;12.30;99.90;;;;;;4987357;28;20100;-78
2023/05/10 04:01:35;;;;;;;52.08;33.00;;;12.30;99.90;;;;;;4974738;28;20038;-79
2023/05/10 04:04:02;;;;;;;48.45;32.47;;;12.30;99.90;;;;;;4983301;28;20514;-79
2023/05/10 04:06:31;;;;;;;42.92;29.00;;;12.30;99.90;;;;;;4982101;28;20182;-79
2023/05/10 04:09:00;;;;;;;39.60;27.90;;;12.20;99.90;;;;;;4987098;28;20121;-78
2023/05/10 04:11:27;;;;;;;26.90;22.17;;;12.20;99.90;;;;;;4985762;28;20037;-79
2023/05/10 04:13:53;;;;;;;30.55;22.95;;;12.20;99.90;;;;;;4970434;28;20044;-80
2023/05/10 04:16:20;;;;;;;26.27;19.83;;;12.20;99.90;;;;;;4995492;28;20045;-79
2023/05/10 04:18:46;;;;;;;26.58;19.98;;;12.20;99.90;;;;;;5027402;28;20045;-79
2023/05/10 04:21:13;;;;;;;28.25;20.88;;;12.20;99.90;;;;;;5003959;28;20050;-79
2023/05/10 04:23:41;;;;;;;25.05;19.80;;;12.10;99.90;;;;;;5002302;28;20075;-79
2023/05/10 04:26:07;;;;;;;28.27;19.63;;;12.10;99.90;;;;;;5001569;28;20212;-79
2023/05/10 04:28:35;;;;;;;27.58;20.60;;;12.10;99.90;;;;;;4988386;28;20045;-78
2023/05/10 04:31:09;;;;;;;35.10;22.42;;;12.10;99.90;;;;;;5001827;28;20547;-79
2023/05/10 04:33:36;;;;;;;27.58;19.80;;;12.20;99.90;;;;;;4986729;28;20045;-80
2023/05/10 04:36:04;;;;;;;27.02;20.27;;;12.20;99.90;;;;;;5003543;28;20056;-79
2023/05/10 04:38:30;;;;;;;28.05;19.98;;;12.20;99.90;;;;;;4986652;28;20054;-79
2023/05/10 04:41:08;;;;;;;31.85;20.38;;;12.20;99.90;;;;;;5032646;28;20498;-79
2023/05/10 04:43:36;;;;;;;29.38;18.95;;;12.20;99.90;;;;;;5004698;28;20084;-80
2023/05/10 04:46:03;;;;;;;31.55;19.13;;;12.30;99.90;;;;;;4996263;28;20122;-78
2023/05/10 04:48:30;;;;;;;29.80;19.92;;;12.20;99.90;;;;;;4971893;28;20473;-79
2023/05/10 04:50:57;;;;;;;21.02;15.68;;;12.20;99.90;;;;;;4982223;28;20136;-79
2023/05/10 04:53:24;;;;;;;18.42;14.02;;;12.20;99.90;;;;;;4981809;28;20045;-79
2023/05/10 04:55:51;;;;;;;22.25;16.67;;;12.10;99.90;;;;;;4963142;28;20085;-78
2023/05/10 04:58:17;;;;;;;22.42;17.23;;;12.10;99.90;;;;;;4977976;28;20055;-80
2023/05/10 05:00:44;;;;;;;25.08;18.52;;;12.20;99.90;;;;;;4975624;28;20050;-79
2023/05/10 05:03:11;;;;;;;25.17;17.90;;;12.20;99.90;;;;;;4967551;28;20045;-78
2023/05/10 05:05:38;;;;;;;25.50;18.38;;;12.10;99.90;;;;;;4997405;28;20053;-80
2023/05/10 05:08:05;;;;;;;32.10;18.67;;;12.20;99.90;;;;;;4966906;28;20470;-79
2023/05/10 05:10:31;;;;;;;22.15;16.05;;;12.20;99.90;;;;;;4983338;28;20049;-79
2023/05/10 05:12:58;;;;;;;19.17;14.88;;;12.20;99.90;;;;;;4969962;28;20718;-79
2023/05/10 05:15:25;;;;;;;15.52;13.40;;;12.10;99.90;;;;;;4980359;28;20042;-80
2023/05/10 05:17:51;;;;;;;12.27;10.95;;;12.10;99.90;;;;;;4983876;28;20531;-79
2023/05/10 05:20:18;;;;;;;12.43;11.23;;;12.00;99.90;;;;;;4969747;28;20034;-78
2023/05/10 05:22:45;;;;;;;11.65;10.55;;;12.10;99.90;;;;;;4982408;28;20042;-79
2023/05/10 05:25:12;;;;;;;10.10;9.18;;;12.10;99.90;;;;;;4974989;28;20494;-79
2023/05/10 05:27:39;;;;;;;7.75;7.20;;;12.00;99.90;;;;;;5011362;28;20041;-80
2023/05/10 05:30:07;;;;;;;8.30;7.60;;;11.90;99.90;;;;;;4998776;28;20041;-79
2023/05/10 05:32:34;;;;;;;8.95;8.15;;;11.90;99.90;;;;;;5002095;28;20036;-79
2023/05/10 05:35:01;;;;;;;7.75;6.97;;;11.80;99.90;;;;;;4999472;28;20083;-79
2023/05/10 05:37:28;;;;;;;10.48;9.55;;;11.80;99.90;;;;;;5003715;28;20056;-79
2023/05/10 05:39:54;;;;;;;12.27;11.23;;;11.80;99.90;;;;;;5004523;28;20042;-78
2023/05/10 05:42:21;;;;;;;8.43;7.82;;;11.90;99.90;;;;;;5022131;28;20605;-79
2023/05/10 05:44:48;;;;;;;8.43;7.72;;;11.90;99.90;;;;;;5002345;28;20053;-78
2023/05/10 05:47:15;;;;;;;7.35;6.72;;;11.90;99.90;;;;;;5004828;28;20087;-80
2023/05/10 05:49:42;;;;;;;7.18;6.57;;;11.80;99.90;;;;;;5017417;28;20042;-78
2023/05/10 05:52:09;;;;;;;8.85;7.97;;;11.80;99.90;;;;;;4967624;28;20034;-80
2023/05/10 05:54:35;;;;;;;12.45;11.15;;;11.90;99.90;;;;;;4980716;28;20117;-78
2023/05/10 05:57:02;;;;;;;10.52;9.52;;;12.00;99.90;;;;;;4977329;28;20068;-80
2023/05/10 05:59:29;;;;;;;9.45;8.52;;;11.90;99.90;;;;;;5004836;28;20037;-80
2023/05/10 06:01:55;;;;;;;7.72;7.00;;;11.90;99.90;;;;;;4988535;28;20029;-80
2023/05/10 06:04:22;;;;;;;9.50;6.70;;;11.90;99.90;;;;;;5003285;28;20073;-79
2023/05/10 06:06:49;;;;;;;13.00;10.93;;;11.90;99.90;;;;;;4993155;28;20041;-79
2023/05/10 06:09:16;;;;;;;11.07;9.85;;;11.90;99.90;;;;;;5015861;28;20096;-80
2023/05/10 06:11:42;;;;;;;11.13;9.93;;;11.90;99.90;;;;;;5001326;28;20128;-78
2023/05/10 06:14:09;;;;;;;10.05;8.63;;;12.00;99.90;;;;;;4984324;28;20046;-78
2023/05/10 06:16:36;;;;;;;8.80;7.82;;;12.00;99.90;;;;;;5019705;28;20041;-79
2023/05/10 06:19:03;;;;;;;10.40;8.85;;;12.00;99.90;;;;;;5003292;28;20068;-78
2023/05/10 06:21:30;;;;;;;8.65;7.65;;;12.00;99.90;;;;;;5007565;28;20042;-80
2023/05/10 06:23:57;;;;;;;9.32;8.43;;;11.90;99.90;;;;;;5000255;28;20136;-78
2023/05/10 06:26:24;;;;;;;11.77;8.75;;;11.90;99.90;;;;;;4998433;28;20038;-79
2023/05/10 06:28:51;;;;;;;10.85;9.75;;;12.00;99.90;;;;;;4997433;28;20504;-80
2023/05/10 06:31:18;;;;;;;13.93;11.27;;;12.00;99.90;;;;;;5003521;28;20042;-79
2023/05/10 06:33:45;;;;;;;17.40;13.68;;;12.00;99.90;;;;;;5002596;28;20124;-79
2023/05/10 06:36:11;;;;;;;18.95;13.23;;;12.10;99.90;;;;;;4999858;28;20661;-78
2023/05/10 06:38:38;;;;;;;15.80;13.15;;;11.90;99.90;;;;;;5023230;28;20132;-79
2023/05/10 06:41:05;;;;;;;18.92;11.57;;;11.90;99.90;;;;;;5003528;28;20052;-78
2023/05/10 06:43:32;;;;;;;16.10;12.90;;;11.80;99.90;;;;;;5000674;28;20049;-79
2023/05/10 06:45:59;;;;;;;12.27;10.70;;;11.80;99.90;;;;;;5015458;28;20038;-79
2023/05/10 06:48:26;;;;;;;12.85;10.52;;;11.80;99.90;;;;;;5005407;28;20072;-79
2023/05/10 06:50:52;;;;;;;11.38;9.68;;;11.80;99.90;;;;;;4996688;28;20034;-80
2023/05/10 06:53:19;;;;;;;14.25;10.90;;;11.80;99.90;;;;;;4983483;28;20050;-78
2023/05/10 06:55:46;;;;;;;11.18;8.88;;;11.80;99.90;;;;;;5003114;28;20517;-78
2023/05/10 06:58:12;;;;;;;14.98;10.30;;;11.90;99.90;;;;;;5000331;28;20053;-78
2023/05/10 07:00:40;;;;;;;15.05;8.82;;;12.00;99.90;;;;;;5003215;28;20128;-78
2023/05/10 07:03:07;;;;;;;10.48;7.43;;;11.90;99.90;;;;;;5004316;28;20045;-79
2023/05/10 07:05:34;;;;;;;14.18;8.75;;;12.00;99.90;;;;;;5004995;28;20037;-80
2023/05/10 07:08:02;;;;;;;8.68;7.07;;;12.10;99.90;;;;;;5004726;28;20689;-79
2023/05/10 07:10:28;;;;;;;9.65;8.05;;;12.20;99.90;;;;;;4986258;28;20046;-79
2023/05/10 07:12:55;;;;;;;8.52;6.30;;;12.30;99.90;;;;;;5001210;28;20904;-78
2023/05/10 07:15:22;;;;;;;8.45;6.43;;;12.40;99.90;;;;;;4998376;28;20092;-78
2023/05/10 07:17:49;;;;;;;9.10;6.20;;;12.30;99.90;;;;;;5013499;28;20053;-78
2023/05/10 07:20:16;;;;;;;6.78;6.00;;;12.30;99.90;;;;;;4990553;28;20136;-79
2023/05/10 07:22:42;;;;;;;8.77;5.25;;;12.50;99.90;;;;;;4981500;28;20046;-78
2023/05/10 07:25:10;;;;;;;7.13;5.88;;;12.70;99.90;;;;;;5005092;28;20073;-80
2023/05/10 07:27:37;;;;;;;9.98;6.07;;;12.80;99.90;;;;;;4976546;28;20038;-79
2023/05/10 07:30:04;;;;;;;10.25;7.43;;;12.80;99.90;;;;;;4996918;28;20046;-79
2023/05/10 07:32:31;;;;;;;9.80;8.40;;;12.70;99.90;;;;;;5001164;28;20164;-80
2023/05/10 07:34:58;;;;;;;11.05;8.88;;;12.70;99.90;;;;;;5018556;28;20086;-77
2023/05/10 07:37:24;;;;;;;12.68;7.88;;;12.60;99.90;;;;;;4997906;28;20125;-78
2023/05/10 07:39:51;;;;;;;13.25;9.02;;;12.60;99.90;;;;;;5012594;28;20641;-79
2023/05/10 07:42:18;;;;;;;15.10;9.05;;;12.70;99.90;;;;;;5002434;28;20048;-77
2023/05/10 07:44:45;;;;;;;9.90;8.90;;;12.70;99.90;;;;;;5010311;28;20042;-77
2023/05/10 07:47:12;;;;;;;11.77;9.98;;;12.70;99.90;;;;;;5001774;28;20128;-77
2023/05/10 07:49:38;;;;;;;13.35;9.98;;;12.60;99.90;;;;;;5018338;28;20120;-77
2023/05/10 07:52:05;;;;;;;15.40;9.98;;;12.70;99.90;;;;;;4983098;28;20045;-77
2023/05/10 07:54:32;;;;;;;13.25;9.82;;;12.80;99.90;;;;;;5004593;28;20096;-78
2023/05/10 07:56:59;;;;;;;13.45;10.48;;;12.90;99.90;;;;;;5013870;28;20041;-79
2023/05/10 07:59:26;;;;;;;13.25;10.65;;;12.90;99.90;;;;;;5002784;28;20056;-79
2023/05/10 08:01:53;;;;;;;13.50;9.80;;;12.90;99.90;;;;;;4994221;28;20046;-78
2023/05/10 08:04:19;;;;;;;17.95;11.80;;;13.10;99.90;;;;;;4995111;28;20780;-78
2023/05/10 08:06:46;;;;;;;12.57;8.82;;;13.40;99.90;;;;;;5000198;28;20034;-77
2023/05/10 08:09:13;;;;;;;15.73;11.23;;;13.60;99.90;;;;;;4996777;28;20055;-77
2023/05/10 08:11:40;;;;;;;13.30;11.43;;;13.70;99.90;;;;;;4998208;28;20041;-77
2023/05/10 08:14:07;;;;;;;12.60;11.43;;;13.70;99.90;;;;;;5000653;28;20036;-78
2023/05/10 08:16:34;;;;;;;17.38;12.60;;;13.50;99.90;;;;;;4988631;28;20042;-77
2023/05/10 08:19:01;;;;;;;19.85;13.95;;;13.40;99.90;;;;;;5015546;28;20542;-79
2023/05/10 08:21:28;;;;;;;20.85;14.18;;;13.40;99.90;;;;;;5002569;28;20053;-79
2023/05/10 08:23:54;;;;;;;18.63;14.73;;;13.50;99.90;;;;;;4998207;28;20041;-78
2023/05/10 08:26:21;;;;;;;20.58;14.60;;;13.50;99.90;;;;;;5012479;28;20487;-79
2023/05/10 08:28:48;;;;;;;20.10;14.68;;;13.50;99.90;;;;;;4999399;28;20542;-79
2023/05/10 08:31:15;;;;;;;20.90;16.45;;;13.60;99.90;;;;;;4980253;28;20042;-77
2023/05/10 08:33:42;;;;;;;19.60;16.85;;;13.70;99.90;;;;;;4979649;28;20047;-79
2023/05/10 08:36:10;;;;;;;21.95;18.92;;;14.10;99.90;;;;;;4974680;28;20142;-80
2023/05/10 08:38:37;;;;;;;20.98;17.35;;;14.20;99.90;;;;;;4963032;28;20038;-79
2023/05/10 08:41:05;;;;;;;23.80;18.85;;;14.30;99.90;;;;;;4960731;28;20038;-80
2023/05/10 08:43:32;;;;;;;21.45;16.45;;;14.30;99.90;;;;;;4987335;28;20046;-79
2023/05/10 08:46:02;;;;;;;20.40;15.63;;;14.20;99.90;;;;;;4981479;28;20048;-78
2023/05/10 08:48:30;;;;;;;18.73;14.88;;;14.20;99.90;;;;;;4981191;28;20042;-79
2023/05/10 08:51:00;;;;;;;22.90;15.07;;;14.10;99.90;;;;;;5010971;28;20503;-78
2023/05/10 08:53:30;;;;;;;18.83;14.43;;;13.90;99.90;;;;;;4990649;28;20132;-78
2023/05/10 08:55:57;;;;;;;15.88;11.77;;;13.90;99.90;;;;;;4986096;28;20072;-78
2023/05/10 08:58:24;;;;;;;15.02;12.10;;;13.80;99.90;;;;;;4989885;28;20080;-79
2023/05/10 09:00:52;;;;;;;17.30;12.00;;;13.60;99.90;;;;;;5004898;28;20048;-79
2023/05/10 09:03:18;;;;;;;19.15;14.45;;;13.50;99.90;;;;;;4991841;28;20060;-79
2023/05/10 09:05:45;;;;;;;18.98;13.43;;;13.60;99.90;;;;;;4999588;28;20046;-78
2023/05/10 09:08:16;;;;;;;26.23;14.85;;;13.80;99.90;;;;;;5003501;28;20042;-79
2023/05/10 09:10:46;;;;;;;29.60;19.55;;;14.00;99.90;;;;;;5006398;28;20128;-78
2023/05/10 09:13:15;;;;;;;37.17;23.95;;;14.30;99.90;;;;;;5005763;28;20072;-77
2023/05/10 09:15:43;;;;;;;38.65;24.20;;;14.40;99.90;;;;;;5006351;28;20041;-78
2023/05/10 09:18:10;;;;;;;34.03;24.48;;;14.30;99.90;;;;;;5009342;28;20455;-78
2023/05/10 09:20:37;;;;;;;48.45;29.45;;;14.20;99.90;;;;;;4993420;28;20072;-79
2023/05/10 09:23:04;;;;;;;39.55;26.13;;;14.10;99.90;;;;;;4998527;28;20049;-78
2023/05/10 09:25:33;;;;;;;42.97;26.17;;;13.80;99.90;;;;;;5000538;28;20498;-78
2023/05/10 09:28:00;;;;;;;38.97;23.60;;;13.60;99.90;;;;;;5018854;28;20065;-78
2023/05/10 09:30:29;;;;;;;43.53;26.17;;;13.50;99.90;;;;;;4982958;28;20042;-78
2023/05/10 09:32:59;;;;;;;46.80;26.35;;;13.60;99.90;;;;;;4996485;28;20068;-79
2023/05/10 09:35:31;;;;;;;49.25;27.92;;;13.70;99.90;;;;;;4996173;28;20072;-78
2023/05/10 09:38:02;;;;;;;42.88;26.67;;;13.90;99.90;;;;;;5015033;28;20046;-78
2023/05/10 09:40:30;;;;;;;43.05;27.00;;;14.20;99.90;;;;;;5001343;28;20103;-79
2023/05/10 09:42:57;;;;;;;42.60;25.55;;;14.40;99.90;;;;;;4990769;28;20648;-78
2023/05/10 09:45:27;;;;;;;46.85;26.98;;;14.40;99.90;;;;;;5022253;28;20055;-78
2023/05/10 09:47:54;;;;;;;47.35;27.92;;;14.50;99.90;;;;;;4985420;28;20034;-77
2023/05/10 09:50:21;;;;;;;45.38;28.80;;;14.50;99.90;;;;;;5006416;28;20045;-78
2023/05/10 09:52:59;;;;;;;48.97;31.48;;;14.40;99.90;;;;;;4976460;28;20042;-78
2023/05/10 09:55:45;;;;;;;48.10;30.50;;;14.40;99.90;;;;;;4981433;28;20076;-77
2023/05/10 09:58:13;;;;;;;52.40;30.77;;;14.50;99.90;;;;;;4964788;28;20046;-78
2023/05/10 10:00:42;;;;;;;50.63;33.25;;;14.60;99.90;;;;;;4970810;28;20049;-78
2023/05/10 10:03:15;;;;;;;49.13;31.92;;;14.60;99.90;;;;;;4998783;28;20479;-78
2023/05/10 10:05:43;;;;;;;48.47;31.27;;;14.50;99.90;;;;;;5014185;28;20053;-78
2023/05/10 10:08:11;;;;;;;41.28;28.40;;;14.90;99.90;;;;;;4993455;28;20049;-78
2023/05/10 10:10:40;;;;;;;42.35;30.52;;;15.20;99.90;;;;;;4983206;28;20092;-79
2023/05/10 10:13:08;;;;;;;46.22;33.33;;;15.20;99.90;;;;;;5001909;28;20072;-78
2023/05/10 10:15:35;;;;;;;43.63;30.83;;;15.00;99.90;;;;;;4990385;28;20692;-78
2023/05/10 10:18:05;;;;;;;50.75;34.55;;;15.10;99.90;;;;;;4995429;28;20064;-78
2023/05/10 10:20:33;;;;;;;47.58;31.73;;;15.20;99.90;;;;;;4987725;28;20419;-78
2023/05/10 10:23:00;;;;;;;40.25;31.48;;;15.60;99.90;;;;;;5003722;28;20050;-78
2023/05/10 10:25:26;;;;;;;41.30;32.00;;;15.70;99.90;;;;;;4997617;28;20053;-78
2023/05/10 10:27:53;;;;;;;39.63;32.45;;;15.80;99.90;;;;;;4986486;28;20042;-79
2023/05/10 10:30:20;;;;;;;39.78;32.17;;;16.10;99.90;;;;;;5021057;28;20041;-79
2023/05/10 10:33:02;;;;;;;42.58;38.35;;;16.50;99.90;;;;;;4986194;28;20240;-78
2023/05/10 10:35:43;;;;;;;47.97;43.38;;;17.00;99.90;;;;;;5015422;28;20502;-80
2023/05/10 10:38:12;;;;;;;48.08;43.38;;;17.30;99.90;;;;;;4977954;28;20128;-80
2023/05/10 10:40:39;;;;;;;44.75;40.55;;;17.40;99.90;;;;;;4995021;28;20657;-79
2023/05/10 10:43:26;;;;;;;46.47;41.78;;;17.90;99.90;;;;;;5008513;28;20819;-78
2023/05/10 10:46:13;;;;;;;48.03;43.03;;;18.00;99.90;;;;;;4996960;28;20042;-79
2023/05/10 10:48:41;;;;;;;43.85;39.85;;;18.00;99.90;;;;;;4989258;28;20034;-80
2023/05/10 10:51:08;;;;;;;45.22;41.30;;;18.00;99.90;;;;;;4995438;28;20040;-79
2023/05/10 10:53:39;;;;;;;48.55;43.88;;;18.30;99.90;;;;;;4997603;28;20046;-79
2023/05/10 10:56:11;;;;;;;45.75;41.63;;;18.70;99.90;;;;;;5000306;28;20053;-80
2023/05/10 10:58:39;;;;;;;46.13;42.13;;;18.40;99.90;;;;;;5017995;28;20042;-79
2023/05/10 11:01:14;;;;;;;46.05;41.88;;;18.40;99.90;;;;;;4996553;28;20064;-79
2023/05/10 11:04:14;;;;;;;44.75;40.75;;;18.50;99.90;;;;;;5001614;28;20091;-79
2023/05/10 11:06:42;;;;;;;46.28;42.08;;;18.20;99.90;;;;;;4993634;28;20552;-78
2023/05/10 11:09:11;;;;;;;47.85;43.47;;;17.70;99.90;;;;;;5008156;28;20055;-77
2023/05/10 11:11:58;;;;;;;50.25;45.17;;;17.20;99.90;;;;;;5005005;28;20034;-79
2023/05/10 11:14:25;;;;;;;46.83;41.97;;;17.00;99.90;;;;;;4997313;28;20068;-78
2023/05/10 11:16:52;;;;;;;51.28;46.35;;;16.80;99.90;;;;;;4992897;28;20492;-77
2023/05/10 11:19:20;;;;;;;52.95;47.92;;;16.90;99.90;;;;;;4996670;28;20049;-76
2023/05/10 11:22:11;;;;;;;50.13;45.28;;;17.30;99.90;;;;;;4995858;28;20124;-78
2023/05/10 11:24:37;;;;;;;53.25;48.05;;;17.90;99.90;;;;;;4979199;28;20052;-78
2023/05/10 11:27:05;;;;;;;46.67;42.40;;;18.40;99.90;;;;;;4995334;28;20144;-78
2023/05/10 11:29:31;;;;;;;51.72;47.03;;;18.50;99.90;;;;;;4999586;28;20037;-77
2023/05/10 11:31:59;;;;;;;49.58;44.50;;;18.50;99.90;;;;;;4998578;28;20044;-77
2023/05/10 11:34:33;;;;;;;49.45;44.53;;;18.70;99.90;;;;;;5019247;28;20069;-77
2023/05/10 11:37:00;;;;;;;49.83;45.33;;;18.90;99.90;;;;;;4999590;28;20111;-77
2023/05/10 11:39:28;;;;;;;46.08;41.55;;;19.00;99.90;;;;;;4999138;28;20061;-77
2023/05/10 11:41:56;;;;;;;48.38;44.33;;;19.20;99.90;;;;;;4997608;28;20046;-76
2023/05/10 11:44:23;;;;;;;46.33;42.10;;;19.10;99.90;;;;;;4998549;28;20049;-76
2023/05/10 11:46:50;;;;;;;48.10;43.50;;;19.30;99.90;;;;;;4998907;28;20029;-76
2023/05/10 11:49:17;;;;;;;47.13;42.72;;;19.30;99.90;;;;;;4997878;28;20037;-76
2023/05/10 11:51:44;;;;;;;44.17;40.33;;;19.20;99.90;;;;;;4982559;28;20132;-77
2023/05/10 11:54:11;;;;;;;48.83;44.38;;;19.20;99.90;;;;;;4977735;28;20173;-76
2023/05/10 11:56:41;;;;;;;40.92;37.03;;;19.40;99.90;;;;;;4999475;28;20116;-77
2023/05/10 11:59:08;;;;;;;41.75;38.03;;;19.80;99.90;;;;;;4980475;28;20099;-77
2023/05/10 12:01:35;;;;;;;44.22;39.95;;;19.80;99.90;;;;;;4979469;28;20052;-76
2023/05/10 12:04:02;;;;;;;44.47;40.38;;;19.50;99.90;;;;;;5001742;28;20128;-77
2023/05/10 12:06:31;;;;;;;45.33;40.95;;;18.90;99.90;;;;;;5001480;28;20069;-76
2023/05/10 12:08:59;;;;;;;47.88;43.08;;;18.30;99.90;;;;;;4998807;28;20072;-77
2023/05/10 12:11:27;;;;;;;53.50;42.63;;;17.70;99.90;;;;;;5001352;28;20053;-80
2023/05/10 12:13:55;;;;;;;49.45;40.05;;;17.30;99.90;;;;;;4984304;28;20042;-76
2023/05/10 12:16:25;;;;;;;50.47;41.13;;;17.20;99.90;;;;;;5020528;28;20045;-75
2023/05/10 12:18:55;;;;;;;45.35;39.25;;;17.20;99.90;;;;;;5002821;28;20048;-76
2023/05/10 12:21:22;;;;;;;51.75;46.22;;;17.30;99.90;;;;;;5002539;28;20084;-77
2023/05/10 12:23:55;;;;;;;44.17;39.85;;;17.20;99.90;;;;;;5003226;28;20079;-76
2023/05/10 12:26:23;;;;;;;48.03;43.53;;;17.60;99.90;;;;;;5008573;28;20041;-75
2023/05/10 12:28:49;;;;;;;42.53;38.63;;;18.30;99.90;;;;;;5002753;28;20045;-75
2023/05/10 12:31:16;;;;;;;43.83;39.75;;;18.70;99.90;;;;;;5001209;28;20049;-76
2023/05/10 12:33:45;;;;;;;45.33;40.72;;;18.80;99.90;;;;;;5003143;28;20045;-76
2023/05/10 12:36:14;;;;;;;47.80;43.38;;;18.50;99.90;;;;;;4998626;28;20326;-76
2023/05/10 12:38:47;;;;;;;45.72;41.35;;;18.30;99.90;;;;;;5002654;28;20514;-75